createdAt,value
2022-10-01T00:12:12.575Z,34.95
2022-10-01T00:22:17.037Z,39.50
2022-10-01T00:32:19.568Z,37.20
2022-10-01T01:48:48.826Z,36.78
2022-10-01T01:58:52.246Z,36.08
2022-10-01T02:09:19.649Z,43.58
2022-10-01T02:19:30.467Z,34.63
2022-10-01T02:29:34.323Z,34.33
2022-10-01T02:39:39.465Z,32.08
2022-10-01T02:49:42.005Z,35.40
2022-10-01T03:11:18.892Z,33.28
2022-10-01T03:21:36.236Z,32.60
2022-10-01T03:31:41.690Z,31.83
2022-10-01T03:41:46.675Z,36.00
2022-10-01T03:52:17.545Z,33.08
2022-10-01T04:02:31.765Z,31.55
2022-10-01T04:12:51.601Z,31.75
2022-10-01T04:22:53.807Z,34.05
2022-10-01T04:32:58.709Z,30.13
2022-10-01T05:04:12.926Z,22.58
2022-10-01T05:14:29.685Z,27.67
2022-10-01T05:24:34.505Z,27.17
2022-10-01T05:34:38.583Z,25.65
2022-10-01T05:44:40.361Z,23.80
2022-10-01T05:54:44.580Z,24.13
2022-10-01T06:04:47.012Z,28.42
2022-10-01T06:14:50.947Z,23.38
2022-10-01T06:24:56.570Z,29.23
2022-10-01T06:34:58.632Z,28.83
2022-10-01T06:45:04.090Z,29.50
2022-10-01T06:55:13.128Z,40.75
2022-10-01T07:05:17.992Z,41.40
2022-10-01T07:15:22.186Z,50.10
2022-10-01T07:25:24.897Z,52.40
2022-10-01T07:35:27.043Z,31.88
2022-10-01T07:45:28.894Z,30.23
2022-10-01T07:55:33.132Z,27.23
2022-10-01T08:05:36.054Z,24.80
2022-10-01T08:15:37.819Z,24.02
2022-10-01T08:25:40.884Z,30.65
2022-10-01T08:35:43.192Z,30.90
2022-10-01T08:45:54.799Z,28.83
2022-10-01T08:55:57.898Z,20.00
2022-10-01T09:06:14.090Z,19.40
2022-10-01T09:16:45.350Z,17.25
2022-10-01T09:26:57.082Z,19.77
2022-10-01T09:37:12.040Z,20.08
2022-10-01T09:47:25.871Z,24.70
2022-10-01T09:57:50.496Z,25.27
2022-10-01T10:08:16.685Z,34.38
2022-10-01T10:18:27.854Z,22.23
2022-10-01T10:28:44.292Z,17.85
2022-10-01T10:38:58.902Z,11.45
2022-10-01T10:49:17.800Z,11.18
2022-10-01T10:59:33.355Z,11.43
2022-10-01T11:10:30.904Z,8.68
2022-10-01T11:32:05.255Z,7.70
2022-10-01T11:42:12.533Z,9.38
2022-10-01T11:52:35.522Z,5.22
2022-10-01T12:02:58.607Z,7.45
2022-10-01T12:13:15.528Z,4.78
2022-10-01T12:23:28.181Z,5.68
2022-10-01T12:33:54.593Z,5.30
2022-10-01T12:44:25.327Z,7.30
2022-10-01T12:54:44.019Z,5.75
2022-10-01T13:05:07.332Z,6.60
2022-10-01T13:15:17.954Z,4.55
2022-10-01T13:25:51.307Z,5.85
2022-10-01T13:36:01.979Z,7.70
2022-10-01T13:46:09.880Z,5.53
2022-10-01T13:56:15.003Z,8.55
2022-10-01T14:06:38.084Z,9.88
2022-10-01T14:16:43.713Z,6.45
2022-10-01T14:27:03.598Z,7.95
2022-10-01T14:37:17.471Z,6.57
2022-10-01T14:47:24.362Z,8.52
2022-10-01T14:57:47.478Z,8.70
2022-10-01T15:07:49.699Z,7.82
2022-10-01T15:17:52.342Z,8.65
2022-10-01T15:27:54.662Z,7.20
2022-10-01T15:37:56.892Z,6.93
2022-10-01T15:47:58.816Z,13.27
2022-10-01T15:58:07.078Z,11.07
2022-10-01T16:08:25.564Z,12.27
2022-10-01T16:18:30.944Z,13.40
2022-10-01T16:28:35.100Z,19.08
2022-10-01T16:38:36.891Z,19.60
2022-10-01T16:48:38.751Z,18.67
2022-10-01T16:58:43.954Z,20.90
2022-10-01T17:08:45.933Z,16.52
2022-10-01T17:18:47.871Z,17.65
2022-10-01T17:28:55.986Z,9.95
2022-10-01T17:38:59.462Z,3.90
2022-10-01T17:49:01.439Z,2.92
2022-10-01T17:59:03.305Z,2.40
2022-10-01T18:09:05.582Z,1.73
2022-10-01T18:19:52.292Z,3.20
2022-10-01T18:29:35.608Z,2.78
2022-10-01T18:39:42.183Z,4.10
2022-10-01T18:50:24.081Z,5.25
2022-10-01T19:00:50.010Z,5.65
2022-10-01T19:11:17.062Z,6.32
2022-10-01T19:21:57.377Z,4.78
2022-10-01T19:32:17.931Z,5.90
2022-10-01T19:42:29.290Z,5.57
2022-10-01T19:52:35.828Z,4.88
2022-10-01T20:02:56.619Z,5.13
2022-10-01T20:13:34.788Z,5.85
2022-10-01T20:24:00.721Z,5.22
2022-10-01T20:34:31.446Z,5.53
2022-10-01T20:44:41.785Z,4.57
2022-10-01T20:55:19.669Z,6.05
2022-10-01T21:05:27.086Z,4.63
2022-10-01T21:15:58.022Z,4.18
2022-10-01T21:59:11.754Z,3.75
2022-10-01T22:53:19.527Z,3.42
2022-10-01T23:15:39.447Z,4.60
2022-10-01T23:37:15.897Z,5.93
2022-10-01T23:47:44.190Z,5.32
2022-10-01T23:57:50.739Z,3.58
